Time;durP1;ratioP1;P1;durP2;ratioP2;P2;SDS_P1;SDS_P2;PMS_P1;PMS_P2;Temp;Humidity;BMP_temperature;BMP_pressure;BME280_temperature;BME280_humidity;BME280_pressure;Samples;Min_cycle;Max_cycle;Signal;HPM_P1;HPM_P2
2023/01/08 00:01:34;;;;;;;37.50;17.63;;;7.80;85.60;;;;;;5068293;28;20264;-81
2023/01/08 00:04:04;;;;;;;35.70;17.20;;;7.70;86.30;;;;;;5071305;28;20218;-80
2023/01/08 00:06:33;;;;;;;34.00;18.97;;;7.70;86.20;;;;;;5071744;28;20659;-81
2023/01/08 00:09:03;;;;;;;30.57;16.97;;;7.70;86.00;;;;;;5069732;28;20197;-83
2023/01/08 00:11:31;;;;;;;31.83;17.07;;;7.60;86.20;;;;;;5067702;28;20198;-82
2023/01/08 00:14:00;;;;;;;31.47;16.97;;;7.60;86.30;;;;;;5067227;28;20201;-81
2023/01/08 00:16:28;;;;;;;31.80;17.47;;;7.60;86.10;;;;;;5070217;28;20709;-81
2023/01/08 00:18:57;;;;;;;34.93;17.90;;;7.50;86.20;;;;;;5061411;28;20201;-80
2023/01/08 00:21:26;;;;;;;33.83;17.37;;;7.50;86.10;;;;;;5068121;28;20197;-80
2023/01/08 00:23:55;;;;;;;33.70;16.97;;;7.50;86.30;;;;;;5067388;28;20226;-81
2023/01/08 00:26:23;;;;;;;33.57;17.27;;;7.50;86.50;;;;;;5068085;28;20208;-80
2023/01/08 00:28:52;;;;;;;37.57;17.93;;;7.40;86.40;;;;;;5066383;28;20205;-80
2023/01/08 00:31:20;;;;;;;41.10;19.00;;;7.30;86.80;;;;;;5066748;28;20201;-81
2023/01/08 00:33:49;;;;;;;37.77;19.37;;;7.30;86.80;;;;;;5067669;28;20554;-81
2023/01/08 00:36:19;;;;;;;37.53;18.27;;;7.20;87.20;;;;;;5068672;28;20257;-81
2023/01/08 00:38:48;;;;;;;40.23;18.97;;;7.20;87.20;;;;;;5067359;28;20197;-80
2023/01/08 00:41:17;;;;;;;36.40;18.77;;;7.20;87.30;;;;;;5068778;28;20201;-83
2023/01/08 00:43:46;;;;;;;33.67;17.57;;;7.20;87.10;;;;;;5066233;28;20224;-80
2023/01/08 00:46:14;;;;;;;35.77;18.67;;;7.10;87.30;;;;;;5068465;28;20201;-83
2023/01/08 00:48:42;;;;;;;39.53;18.53;;;7.10;87.50;;;;;;5070732;28;20553;-81
2023/01/08 00:51:13;;;;;;;45.17;20.53;;;7.10;87.40;;;;;;5067925;28;20199;-81
2023/01/08 00:53:42;;;;;;;39.47;18.07;;;7.10;87.60;;;;;;5068341;28;20255;-80
2023/01/08 00:56:12;;;;;;;36.50;18.23;;;7.00;87.70;;;;;;5066568;28;20200;-82
2023/01/08 00:58:40;;;;;;;39.20;17.80;;;7.00;88.00;;;;;;5062464;28;20573;-81
2023/01/08 01:01:12;;;;;;;34.50;18.47;;;7.00;88.00;;;;;;5067008;28;20237;-80
2023/01/08 01:03:41;;;;;;;34.67;18.43;;;7.00;88.20;;;;;;5066218;28;20274;-81
2023/01/08 01:06:11;;;;;;;34.03;16.57;;;7.00;88.50;;;;;;5066921;28;20193;-82
2023/01/08 01:08:40;;;;;;;36.63;17.17;;;6.90;88.80;;;;;;5063870;28;20697;-81
2023/01/08 01:11:09;;;;;;;31.07;15.57;;;6.90;88.70;;;;;;5063785;28;20196;-81
2023/01/08 01:13:41;;;;;;;32.63;15.63;;;6.90;88.50;;;;;;5062346;28;20407;-81
2023/01/08 01:16:10;;;;;;;32.80;16.37;;;6.90;88.50;;;;;;5067401;28;20229;-80
2023/01/08 01:18:38;;;;;;;33.03;15.77;;;6.90;89.40;;;;;;5061525;28;20265;-80
2023/01/08 01:21:11;;;;;;;28.37;15.60;;;7.00;89.40;;;;;;5067426;28;20197;-80
2023/01/08 01:23:39;;;;;;;33.10;16.03;;;7.00;90.00;;;;;;5067458;28;20225;-80
2023/01/08 01:26:16;;;;;;;36.90;15.83;;;7.00;90.10;;;;;;5061757;28;20198;-81
2023/01/08 01:28:48;;;;;;;28.27;14.37;;;7.00;90.00;;;;;;5065671;28;20203;-82
2023/01/08 01:31:18;;;;;;;28.23;15.00;;;7.00;90.00;;;;;;5065624;28;20203;-80
2023/01/08 01:33:46;;;;;;;32.25;18.13;;;7.00;89.80;;;;;;5061810;28;20503;-80
2023/01/08 01:36:16;;;;;;;30.50;16.67;;;7.00;90.70;;;;;;5064665;28;20547;-81
2023/01/08 01:38:45;;;;;;;28.93;14.83;;;7.00;90.40;;;;;;5065567;28;20765;-81
2023/01/08 01:41:22;;;;;;;29.87;16.43;;;7.10;90.30;;;;;;5067213;28;20202;-81
2023/01/08 01:43:53;;;;;;;32.90;16.17;;;7.10;90.40;;;;;;5057960;28;21008;-80
2023/01/08 01:46:28;;;;;;;28.17;14.60;;;7.10;90.40;;;;;;5065275;28;20193;-80
2023/01/08 01:49:00;;;;;;;35.60;15.13;;;7.10;90.70;;;;;;5060739;28;20204;-80
2023/01/08 01:51:32;;;;;;;28.83;15.63;;;7.00;90.70;;;;;;5065770;28;20209;-80
2023/01/08 01:54:03;;;;;;;30.53;15.77;;;7.00;90.80;;;;;;5068130;28;20200;-81
2023/01/08 01:56:32;;;;;;;33.50;15.50;;;7.00;90.80;;;;;;5064353;28;20669;-83
2023/01/08 01:59:02;;;;;;;25.43;13.63;;;7.00;90.90;;;;;;5066337;28;20555;-81
2023/01/08 02:01:31;;;;;;;27.03;13.70;;;7.00;90.80;;;;;;5066013;28;20210;-82
2023/01/08 02:04:00;;;;;;;33.43;15.33;;;7.00;90.80;;;;;;5064396;28;20203;-81
2023/01/08 02:06:37;;;;;;;27.50;15.13;;;7.00;91.00;;;;;;5063773;28;20302;-82
2023/01/08 02:09:15;;;;;;;30.30;15.30;;;7.00;91.10;;;;;;5063754;28;20199;-81
2023/01/08 02:12:15;;;;;;;29.97;15.23;;;7.00;91.20;;;;;;5063877;28;20208;-82
2023/01/08 02:14:44;;;;;;;26.90;14.97;;;7.00;91.20;;;;;;5064139;28;20283;-81
2023/01/08 02:17:17;;;;;;;32.80;15.37;;;7.00;91.10;;;;;;5066013;28;20235;-81
2023/01/08 02:19:50;;;;;;;35.43;16.97;;;7.00;91.00;;;;;;5063094;28;20191;-79
2023/01/08 02:22:28;;;;;;;29.20;14.47;;;7.00;90.90;;;;;;5062954;28;20195;-79
2023/01/08 02:25:06;;;;;;;31.37;14.73;;;7.00;90.90;;;;;;5064853;28;20905;-80
2023/01/08 02:27:38;;;;;;;27.47;14.77;;;7.00;91.30;;;;;;5066659;28;20201;-80
2023/01/08 02:30:07;;;;;;;27.07;14.70;;;7.00;90.80;;;;;;5063696;28;20657;-81
2023/01/08 02:32:39;;;;;;;26.73;14.27;;;6.90;90.90;;;;;;5066113;28;20203;-81
2023/01/08 02:35:09;;;;;;;29.50;15.30;;;6.90;91.00;;;;;;5069123;28;20199;-80
2023/01/08 02:37:38;;;;;;;31.60;14.67;;;6.90;91.00;;;;;;5061054;28;20595;-81
2023/01/08 02:40:15;;;;;;;25.40;13.93;;;6.80;91.00;;;;;;5068304;28;20203;-81
2023/01/08 02:42:51;;;;;;;26.43;14.00;;;6.80;91.10;;;;;;5068425;28;20205;-81
2023/01/08 02:45:33;;;;;;;25.33;13.30;;;6.70;91.20;;;;;;5068033;28;20221;-81
2023/01/08 02:48:09;;;;;;;29.77;15.00;;;6.70;91.20;;;;;;5068978;28;20202;-81
2023/01/08 02:50:41;;;;;;;31.83;15.47;;;6.60;91.40;;;;;;5068811;28;20688;-81
2023/01/08 02:53:14;;;;;;;26.00;13.20;;;6.60;91.40;;;;;;5068403;28;20241;-81
2023/01/08 02:55:45;;;;;;;25.27;13.30;;;6.50;91.70;;;;;;5072202;28;20193;-81
2023/01/08 02:58:16;;;;;;;26.00;13.20;;;6.60;91.60;;;;;;5067589;28;20669;-80
2023/01/08 03:00:46;;;;;;;22.90;11.97;;;6.60;91.50;;;;;;5069027;28;20199;-82
2023/01/08 03:03:19;;;;;;;24.40;12.23;;;6.50;91.70;;;;;;5071152;28;20198;-81
2023/01/08 03:05:52;;;;;;;24.63;12.30;;;6.50;91.70;;;;;;5062867;28;20215;-80
2023/01/08 03:08:23;;;;;;;26.27;12.33;;;6.50;91.80;;;;;;5073987;28;20193;-81
2023/01/08 03:10:56;;;;;;;25.37;12.60;;;6.40;91.90;;;;;;5067733;28;20251;-83
2023/01/08 03:13:34;;;;;;;32.33;14.60;;;6.50;91.70;;;;;;5068304;28;20199;-81
2023/01/08 03:16:09;;;;;;;25.33;14.07;;;6.50;91.70;;;;;;5063795;28;20252;-81
2023/01/08 03:18:44;;;;;;;24.30;13.60;;;6.50;91.50;;;;;;5066295;28;20192;-81
2023/01/08 03:21:13;;;;;;;26.57;14.13;;;6.50;91.50;;;;;;5066258;28;20199;-82
2023/01/08 03:23:43;;;;;;;33.37;14.57;;;6.50;91.40;;;;;;5070132;28;20205;-81
2023/01/08 03:26:15;;;;;;;26.40;13.67;;;6.50;91.30;;;;;;5066610;28;20218;-82
2023/01/08 03:28:50;;;;;;;27.10;14.73;;;6.50;91.40;;;;;;5068497;28;20194;-81
2023/01/08 03:31:19;;;;;;;29.63;14.27;;;6.50;91.30;;;;;;5066978;28;20659;-81
2023/01/08 03:33:49;;;;;;;29.60;15.03;;;6.50;91.30;;;;;;5064389;28;20208;-81
2023/01/08 03:36:25;;;;;;;61.00;23.30;;;6.50;91.20;;;;;;5072702;28;20199;-81
2023/01/08 03:38:59;;;;;;;76.83;29.37;;;6.50;91.20;;;;;;5067952;28;20545;-81
2023/01/08 03:41:31;;;;;;;58.33;23.57;;;6.50;91.30;;;;;;5061054;28;20281;-80
2023/01/08 03:44:01;;;;;;;59.53;22.67;;;6.50;91.40;;;;;;5066928;28;20202;-81
2023/01/08 03:46:33;;;;;;;47.03;18.97;;;6.50;91.30;;;;;;5067320;28;20213;-82
2023/01/08 03:49:04;;;;;;;31.30;14.07;;;6.50;91.20;;;;;;5068674;28;20204;-81
2023/01/08 03:51:40;;;;;;;29.57;14.20;;;6.50;91.20;;;;;;5063665;28;20678;-83
2023/01/08 03:54:11;;;;;;;27.07;13.63;;;6.60;91.20;;;;;;5064057;28;20282;-81
2023/01/08 03:56:39;;;;;;;31.03;14.47;;;6.60;91.10;;;;;;5061998;28;20550;-81
2023/01/08 03:59:10;;;;;;;34.37;16.13;;;6.60;91.10;;;;;;5063585;28;20220;-81
2023/01/08 04:01:38;;;;;;;29.93;14.03;;;6.60;91.30;;;;;;5067869;28;20209;-82
2023/01/08 04:04:07;;;;;;;34.60;15.60;;;6.60;91.20;;;;;;5065084;28;20288;-79
2023/01/08 04:06:36;;;;;;;27.30;14.07;;;6.60;91.10;;;;;;5066109;28;20267;-81
2023/01/08 04:09:05;;;;;;;29.07;14.47;;;6.60;91.10;;;;;;5064613;28;20203;-81
2023/01/08 04:11:33;;;;;;;29.07;13.83;;;6.60;91.10;;;;;;5070409;28;20201;-81
2023/01/08 04:14:01;;;;;;;28.43;14.17;;;6.60;91.20;;;;;;5071302;28;20193;-81
2023/01/08 04:16:33;;;;;;;24.73;13.43;;;6.60;91.10;;;;;;5064172;28;20237;-81
2023/01/08 04:19:02;;;;;;;27.03;13.87;;;6.60;91.10;;;;;;5065518;28;20204;-81
2023/01/08 04:21:30;;;;;;;28.07;14.23;;;6.60;91.10;;;;;;5072355;28;20220;-80
2023/01/08 04:23:58;;;;;;;29.73;15.13;;;6.60;91.20;;;;;;5067674;28;20605;-80
2023/01/08 04:26:27;;;;;;;29.57;14.03;;;6.60;91.20;;;;;;5068944;28;20213;-80
2023/01/08 04:28:55;;;;;;;27.87;14.80;;;6.60;91.20;;;;;;5066898;28;20202;-80
2023/01/08 04:31:24;;;;;;;26.87;13.37;;;6.60;91.30;;;;;;5067328;28;20197;-79
2023/01/08 04:33:54;;;;;;;29.43;14.27;;;6.60;91.20;;;;;;5065872;28;20190;-80
2023/01/08 04:36:22;;;;;;;25.17;13.67;;;6.60;91.30;;;;;;5066216;28;20198;-80
2023/01/08 04:38:50;;;;;;;27.90;14.27;;;6.50;91.30;;;;;;5067172;28;20641;-80
2023/01/08 04:41:19;;;;;;;29.50;14.17;;;6.50;91.40;;;;;;5065632;28;20200;-80
2023/01/08 04:43:47;;;;;;;23.50;12.77;;;6.40;91.40;;;;;;5064921;28;20428;-80
2023/01/08 04:46:16;;;;;;;27.67;13.90;;;6.50;91.50;;;;;;5063558;28;20298;-83
2023/01/08 04:48:44;;;;;;;27.13;14.10;;;6.50;91.50;;;;;;5068998;28;20197;-83
2023/01/08 04:51:14;;;;;;;30.27;14.50;;;6.50;91.70;;;;;;5061779;28;21019;-81
2023/01/08 04:53:44;;;;;;;29.27;14.90;;;6.40;91.30;;;;;;5071757;28;20201;-81
2023/01/08 04:56:12;;;;;;;26.43;14.77;;;6.40;91.20;;;;;;5065230;28;20205;-81
2023/01/08 04:58:41;;;;;;;27.50;13.93;;;6.40;91.30;;;;;;5070182;28;20677;-79
2023/01/08 05:01:11;;;;;;;26.33;13.90;;;6.40;91.20;;;;;;5069374;28;20604;-80
2023/01/08 05:03:40;;;;;;;30.17;14.47;;;6.40;91.30;;;;;;5064239;28;20201;-80
2023/01/08 05:06:08;;;;;;;28.10;13.87;;;6.40;91.30;;;;;;5066590;28;20447;-80
2023/01/08 05:08:38;;;;;;;24.83;13.40;;;6.40;91.30;;;;;;5068766;28;20221;-79
2023/01/08 05:11:07;;;;;;;28.93;14.53;;;6.40;91.30;;;;;;5069645;28;20209;-79
2023/01/08 05:13:35;;;;;;;27.97;14.23;;;6.40;91.30;;;;;;5068714;28;20204;-80
2023/01/08 05:16:04;;;;;;;33.40;15.63;;;6.40;91.30;;;;;;5068430;28;20233;-80
2023/01/08 05:18:33;;;;;;;29.43;14.67;;;6.40;91.30;;;;;;5065089;28;20285;-80
2023/01/08 05:21:02;;;;;;;27.63;14.17;;;6.40;91.20;;;;;;5066938;28;20637;-82
2023/01/08 05:23:30;;;;;;;23.73;12.90;;;6.40;91.20;;;;;;5066132;28;20201;-80
2023/01/08 05:26:01;;;;;;;25.10;13.13;;;6.40;91.20;;;;;;5065286;28;20212;-80
2023/01/08 05:28:30;;;;;;;22.73;12.87;;;6.40;91.20;;;;;;5067789;28;20596;-80
2023/01/08 05:30:59;;;;;;;26.77;13.40;;;6.30;91.30;;;;;;5068066;28;20210;-81
2023/01/08 05:33:28;;;;;;;29.27;14.47;;;6.30;91.30;;;;;;5070489;28;20208;-80
2023/01/08 05:35:56;;;;;;;26.93;13.33;;;6.30;91.40;;;;;;5062455;28;20600;-81
2023/01/08 05:38:25;;;;;;;28.60;13.97;;;6.30;91.30;;;;;;5065112;28;20194;-79
2023/01/08 05:40:53;;;;;;;26.63;14.27;;;6.30;91.30;;;;;;5061329;28;20251;-79
2023/01/08 05:43:23;;;;;;;27.07;14.77;;;6.40;91.30;;;;;;5067126;28;20206;-80
2023/01/08 05:45:51;;;;;;;26.70;14.23;;;6.30;91.40;;;;;;5061355;28;20626;-81
2023/01/08 05:48:20;;;;;;;29.47;14.63;;;6.30;91.30;;;;;;5067022;28;20279;-79
2023/01/08 05:50:50;;;;;;;28.07;14.97;;;6.30;91.40;;;;;;5064612;28;20232;-79
2023/01/08 05:53:18;;;;;;;28.00;14.43;;;6.30;91.30;;;;;;5069038;28;20203;-80
2023/01/08 05:55:47;;;;;;;26.77;14.67;;;6.30;91.60;;;;;;5062611;28;20641;-79
2023/01/08 05:58:17;;;;;;;29.40;15.13;;;6.30;91.50;;;;;;5062360;28;20198;-79
2023/01/08 06:00:47;;;;;;;34.77;16.13;;;6.30;91.50;;;;;;5066931;28;20195;-80
2023/01/08 06:03:16;;;;;;;38.20;17.67;;;6.30;91.40;;;;;;5070321;28;20210;-80
2023/01/08 06:05:44;;;;;;;35.00;18.90;;;6.30;91.50;;;;;;5064540;28;20205;-80
2023/01/08 06:08:12;;;;;;;34.50;18.77;;;6.30;91.50;;;;;;5064650;28;20620;-79
2023/01/08 06:10:41;;;;;;;35.88;18.65;;;6.30;91.50;;;;;;5065427;28;20439;-81
2023/01/08 06:13:10;;;;;;;36.33;18.70;;;6.30;91.50;;;;;;5064908;28;20272;-80
2023/01/08 06:15:39;;;;;;;37.03;19.43;;;6.30;91.50;;;;;;5067000;28;20239;-80
2023/01/08 06:18:09;;;;;;;38.27;18.33;;;6.30;91.50;;;;;;5072644;28;20622;-80
2023/01/08 06:20:37;;;;;;;37.33;19.67;;;6.30;91.50;;;;;;5070670;28;20216;-81
2023/01/08 06:23:07;;;;;;;35.33;19.00;;;6.30;91.50;;;;;;5065298;28;20209;-81
2023/01/08 06:25:36;;;;;;;39.57;19.10;;;6.30;91.60;;;;;;5068404;28;20193;-82
2023/01/08 06:28:04;;;;;;;39.53;19.20;;;6.30;91.50;;;;;;5068330;28;20225;-81
2023/01/08 06:30:33;;;;;;;39.77;19.10;;;6.30;91.60;;;;;;5070702;28;20204;-81
2023/01/08 06:33:02;;;;;;;34.00;18.87;;;6.30;91.70;;;;;;5067656;28;20514;-81
2023/01/08 06:35:31;;;;;;;38.50;19.10;;;6.30;91.80;;;;;;5069415;28;20539;-79
2023/01/08 06:38:00;;;;;;;40.30;19.23;;;6.30;91.80;;;;;;5064906;28;20310;-80
2023/01/08 06:40:28;;;;;;;37.53;20.10;;;6.30;91.90;;;;;;5070863;28;20652;-80
2023/01/08 06:43:01;;;;;;;36.30;19.97;;;6.30;92.10;;;;;;5072195;28;20195;-80
2023/01/08 06:45:29;;;;;;;35.07;20.30;;;6.30;92.10;;;;;;5071940;28;20259;-81
2023/01/08 06:48:01;;;;;;;44.13;22.03;;;6.30;92.10;;;;;;5074636;28;20225;-82
2023/01/08 06:50:31;;;;;;;40.63;23.37;;;6.40;92.30;;;;;;5072514;28;20214;-82
2023/01/08 06:53:00;;;;;;;41.30;21.33;;;6.40;92.40;;;;;;5073454;28;20195;-80
2023/01/08 06:55:28;;;;;;;43.40;20.90;;;6.40;92.50;;;;;;5068526;28;20255;-80
2023/01/08 06:57:58;;;;;;;43.23;22.10;;;6.40;92.50;;;;;;5069628;28;20197;-79
2023/01/08 07:00:27;;;;;;;40.60;22.47;;;6.40;92.50;;;;;;5071758;28;20339;-84
2023/01/08 07:02:56;;;;;;;39.40;20.37;;;6.40;92.60;;;;;;5067520;28;20204;-80
2023/01/08 07:05:24;;;;;;;42.17;20.17;;;6.50;92.70;;;;;;5071273;28;20335;-80
2023/01/08 07:07:54;;;;;;;35.93;19.40;;;6.50;92.70;;;;;;5064320;28;20214;-80
2023/01/08 07:10:23;;;;;;;40.20;19.70;;;6.60;92.70;;;;;;5071442;28;20193;-80
2023/01/08 07:12:51;;;;;;;36.43;19.07;;;6.60;93.00;;;;;;5067048;28;20194;-80
2023/01/08 07:15:19;;;;;;;33.93;17.97;;;6.60;92.90;;;;;;5068932;28;20201;-79
2023/01/08 07:17:48;;;;;;;30.93;17.37;;;6.60;93.60;;;;;;5073215;28;20190;-81
2023/01/08 07:20:16;;;;;;;36.07;17.83;;;6.60;93.80;;;;;;5070920;28;20194;-81
2023/01/08 07:22:45;;;;;;;35.15;18.33;;;6.60;94.00;;;;;;5070185;28;20440;-80
2023/01/08 07:25:15;;;;;;;33.07;17.00;;;6.70;94.00;;;;;;5070310;28;20654;-80
2023/01/08 07:27:43;;;;;;;31.23;16.53;;;6.70;94.50;;;;;;5072587;28;20213;-80
2023/01/08 07:30:12;;;;;;;29.23;16.50;;;6.80;94.70;;;;;;5072375;28;20514;-79
2023/01/08 07:33:00;;;;;;;32.47;15.73;;;6.80;94.80;;;;;;5071118;28;20187;-80
2023/01/08 07:35:28;;;;;;;28.83;15.07;;;6.90;94.80;;;;;;5069922;28;20219;-79
2023/01/08 07:37:57;;;;;;;29.93;14.93;;;7.00;94.70;;;;;;5071758;28;20206;-80
2023/01/08 07:40:26;;;;;;;31.43;14.63;;;7.10;94.80;;;;;;5072249;28;20667;-80
2023/01/08 07:42:59;;;;;;;29.07;15.63;;;7.10;94.70;;;;;;5073752;28;20206;-79
2023/01/08 07:45:28;;;;;;;30.53;14.80;;;7.30;94.60;;;;;;5071035;28;20222;-80
2023/01/08 07:47:57;;;;;;;29.80;16.63;;;7.30;94.50;;;;;;5073081;28;20761;-80
2023/01/08 07:50:27;;;;;;;31.57;16.10;;;7.40;94.50;;;;;;5068931;28;20222;-81
2023/01/08 07:52:58;;;;;;;30.87;15.63;;;7.50;94.50;;;;;;5069202;28;20574;-79
2023/01/08 07:55:30;;;;;;;27.60;15.63;;;7.60;94.40;;;;;;5068191;28;20273;-80
2023/01/08 07:57:58;;;;;;;29.27;15.97;;;7.70;94.40;;;;;;5070278;28;20199;-81
2023/01/08 08:00:27;;;;;;;29.00;15.73;;;7.70;94.30;;;;;;5071674;28;20202;-81
2023/01/08 08:02:55;;;;;;;31.30;14.73;;;7.80;94.30;;;;;;5063678;28;20195;-83
2023/01/08 08:05:24;;;;;;;31.47;16.30;;;7.90;94.20;;;;;;5072343;28;20233;-83
2023/01/08 08:07:52;;;;;;;27.13;15.23;;;7.90;94.20;;;;;;5065341;28;20581;-80
2023/01/08 08:10:20;;;;;;;29.03;14.87;;;8.00;94.10;;;;;;5065910;28;20213;-83
2023/01/08 08:12:50;;;;;;;29.93;15.00;;;8.10;94.00;;;;;;5064062;28;20199;-80
2023/01/08 08:15:19;;;;;;;27.63;14.60;;;8.10;93.90;;;;;;5070413;28;20226;-82
2023/01/08 08:17:48;;;;;;;28.00;13.93;;;8.20;93.90;;;;;;5061724;28;20643;-81
2023/01/08 08:20:34;;;;;;;23.40;13.77;;;8.30;93.80;;;;;;5060003;28;20550;-82
2023/01/08 08:23:26;;;;;;;28.07;14.43;;;8.40;93.70;;;;;;5069826;28;20281;-82
2023/01/08 08:25:56;;;;;;;30.00;14.77;;;8.40;93.60;;;;;;5070702;28;20198;-80
2023/01/08 08:28:26;;;;;;;27.47;13.43;;;8.50;93.60;;;;;;5066325;28;20225;-82
2023/01/08 08:30:57;;;;;;;26.00;13.03;;;8.50;93.50;;;;;;5030060;28;20198;-85
2023/01/08 08:33:26;;;;;;;25.43;13.10;;;8.60;93.40;;;;;;5066899;28;20190;-83
2023/01/08 08:35:54;;;;;;;28.13;14.03;;;8.70;93.40;;;;;;5067727;28;20588;-82
2023/01/08 08:38:23;;;;;;;25.03;14.07;;;8.70;93.40;;;;;;5069568;28;20199;-81
2023/01/08 08:40:52;;;;;;;24.77;13.07;;;8.80;93.30;;;;;;5069068;28;20662;-81
2023/01/08 08:43:21;;;;;;;25.93;13.17;;;8.90;93.20;;;;;;5069757;28;20194;-81
2023/01/08 08:45:50;;;;;;;30.37;14.37;;;9.00;93.10;;;;;;5068203;28;20601;-82
2023/01/08 08:48:22;;;;;;;26.67;14.43;;;9.20;93.00;;;;;;5070945;28;20218;-83
2023/01/08 08:50:50;;;;;;;27.03;13.17;;;9.30;92.90;;;;;;5066869;28;20191;-83
2023/01/08 08:53:18;;;;;;;30.63;15.33;;;9.30;92.70;;;;;;5067859;28;20200;-82
2023/01/08 08:55:47;;;;;;;27.67;13.83;;;9.40;92.40;;;;;;5069780;28;20198;-82
2023/01/08 08:58:15;;;;;;;27.88;15.20;;;9.50;92.30;;;;;;5064038;28;20765;-81
2023/01/08 09:00:44;;;;;;;25.37;12.77;;;9.60;92.30;;;;;;5069909;28;20214;-83
2023/01/08 09:03:14;;;;;;;25.70;13.97;;;9.70;92.20;;;;;;5070754;28;20720;-80
2023/01/08 09:05:44;;;;;;;28.27;14.63;;;9.70;92.00;;;;;;5073509;28;20198;-79
2023/01/08 09:08:12;;;;;;;27.23;15.77;;;9.70;91.90;;;;;;5066761;28;20309;-79
2023/01/08 09:10:42;;;;;;;29.13;14.60;;;9.80;92.00;;;;;;5064300;28;20207;-80
2023/01/08 09:13:11;;;;;;;27.20;14.77;;;9.90;92.20;;;;;;5069994;28;20198;-78
2023/01/08 09:15:39;;;;;;;33.30;14.03;;;9.90;92.10;;;;;;5055291;28;20226;-79
2023/01/08 09:18:07;;;;;;;28.30;14.73;;;9.90;92.00;;;;;;5051846;28;20199;-78
2023/01/08 09:20:39;;;;;;;25.73;13.23;;;10.00;92.10;;;;;;5041562;28;20207;-78
2023/01/08 09:23:07;;;;;;;25.63;12.77;;;10.00;92.00;;;;;;5046600;28;20257;-79
2023/01/08 09:25:35;;;;;;;23.70;12.97;;;10.10;91.90;;;;;;5042025;28;20208;-80
2023/01/08 09:28:05;;;;;;;23.87;12.73;;;10.20;91.90;;;;;;5049914;28;20669;-80
2023/01/08 09:30:34;;;;;;;28.10;13.60;;;10.20;91.80;;;;;;5043240;28;20199;-79
2023/01/08 09:33:03;;;;;;;29.43;13.60;;;10.30;91.80;;;;;;5048187;28;20203;-79
2023/01/08 09:35:32;;;;;;;29.37;13.83;;;10.40;91.70;;;;;;5047620;28;20226;-79
2023/01/08 09:38:02;;;;;;;26.83;12.93;;;10.40;91.50;;;;;;5045159;28;20192;-78
2023/01/08 09:40:35;;;;;;;28.37;13.60;;;10.40;91.40;;;;;;5052952;28;20224;-80
2023/01/08 09:43:04;;;;;;;25.50;13.37;;;10.40;91.40;;;;;;5045663;28;20190;-81
2023/01/08 09:45:35;;;;;;;26.87;14.00;;;10.50;91.40;;;;;;5045273;28;20203;-81
2023/01/08 09:48:12;;;;;;;25.97;12.23;;;10.50;91.50;;;;;;5050090;28;20229;-80
2023/01/08 09:50:40;;;;;;;25.63;13.00;;;10.50;91.70;;;;;;5044723;28;20249;-80
2023/01/08 09:53:14;;;;;;;30.60;15.20;;;10.70;91.60;;;;;;5045449;28;20195;-81
2023/01/08 09:55:44;;;;;;;28.60;14.03;;;10.70;91.50;;;;;;5048961;28;20665;-80
2023/01/08 09:58:27;;;;;;;23.97;13.60;;;10.70;91.50;;;;;;5048633;28;20194;-81
2023/01/08 10:00:56;;;;;;;29.47;12.93;;;10.80;91.40;;;;;;5041638;28;20260;-81
2023/01/08 10:03:31;;;;;;;27.23;13.40;;;10.90;91.40;;;;;;5041237;28;20196;-82
2023/01/08 10:06:07;;;;;;;24.50;12.70;;;10.90;91.40;;;;;;5047908;28;20198;-82
2023/01/08 10:08:37;;;;;;;20.60;11.43;;;11.00;91.20;;;;;;5043037;28;20264;-81
2023/01/08 10:11:06;;;;;;;23.83;11.90;;;11.10;91.20;;;;;;5041614;28;20191;-82
2023/01/08 10:13:37;;;;;;;24.80;13.77;;;11.20;91.10;;;;;;5042289;28;20454;-81
2023/01/08 10:16:08;;;;;;;22.00;12.10;;;11.20;91.00;;;;;;5043323;28;20237;-82
2023/01/08 10:18:40;;;;;;;22.93;11.37;;;11.30;91.00;;;;;;5044076;28;20655;-81
2023/01/08 10:21:13;;;;;;;25.40;13.73;;;11.40;91.00;;;;;;5045592;28;20195;-80
2023/01/08 10:23:51;;;;;;;25.00;12.73;;;11.40;90.90;;;;;;5043581;28;20233;-79
2023/01/08 10:26:27;;;;;;;25.77;13.13;;;11.50;91.00;;;;;;5048096;28;20605;-81
2023/01/08 10:29:11;;;;;;;27.60;12.90;;;11.50;90.50;;;;;;5044502;28;20213;-81
2023/01/08 10:31:47;;;;;;;23.10;13.13;;;11.60;90.50;;;;;;5045436;28;20210;-82
2023/01/08 10:34:27;;;;;;;23.27;12.10;;;11.60;90.50;;;;;;5049132;28;20194;-79
2023/01/08 10:36:56;;;;;;;23.50;13.17;;;11.70;90.40;;;;;;5047547;28;20248;-78
2023/01/08 10:39:28;;;;;;;25.33;12.03;;;11.60;90.00;;;;;;5040640;28;20598;-79
2023/01/08 10:42:03;;;;;;;26.60;12.80;;;11.60;90.20;;;;;;5044854;28;20191;-81
2023/01/08 10:44:34;;;;;;;28.37;13.63;;;11.60;90.00;;;;;;5045287;28;20217;-83
2023/01/08 10:47:05;;;;;;;19.77;11.83;;;11.60;90.20;;;;;;5043958;28;20192;-81
2023/01/08 10:49:37;;;;;;;25.47;12.57;;;11.50;89.90;;;;;;5042066;28;20234;-78
2023/01/08 10:52:20;;;;;;;22.83;12.47;;;11.60;90.00;;;;;;5046752;28;20257;-80
2023/01/08 10:54:49;;;;;;;31.47;14.43;;;11.60;89.90;;;;;;5042015;28;20195;-79
2023/01/08 10:57:24;;;;;;;26.67;14.17;;;11.60;90.00;;;;;;5048873;28;20257;-80
2023/01/08 10:59:52;;;;;;;23.23;12.13;;;11.60;90.00;;;;;;5050082;28;20190;-82
2023/01/08 11:02:30;;;;;;;26.10;13.57;;;11.70;90.00;;;;;;5053643;28;20203;-80
2023/01/08 11:04:59;;;;;;;28.88;16.15;;;11.80;90.00;;;;;;5045581;28;20461;-80
2023/01/08 11:07:29;;;;;;;26.00;13.57;;;11.90;90.10;;;;;;5051868;28;20667;-81
2023/01/08 11:09:59;;;;;;;24.87;13.20;;;12.00;90.20;;;;;;5051842;28;20219;-80
2023/01/08 11:12:36;;;;;;;28.80;13.50;;;12.00;90.00;;;;;;5046177;28;20663;-79
2023/01/08 11:15:07;;;;;;;25.37;14.03;;;12.10;89.80;;;;;;5047460;28;20223;-82
2023/01/08 11:17:36;;;;;;;27.93;14.00;;;12.20;89.50;;;;;;5053519;28;20256;-80
2023/01/08 11:20:09;;;;;;;23.23;12.00;;;12.30;89.50;;;;;;5051202;28;20199;-80
2023/01/08 11:22:37;;;;;;;25.33;12.83;;;12.40;89.00;;;;;;5050524;28;20199;-82
2023/01/08 11:25:14;;;;;;;26.83;13.30;;;12.50;88.90;;;;;;5051598;28;20195;-78
2023/01/08 11:27:44;;;;;;;23.27;11.57;;;12.70;89.00;;;;;;5051685;28;20203;-83
2023/01/08 11:30:16;;;;;;;25.47;12.50;;;12.80;88.90;;;;;;5046637;28;20207;-81
2023/01/08 11:32:49;;;;;;;21.23;12.07;;;12.60;86.90;;;;;;5043119;28;20246;-82
2023/01/08 11:35:20;;;;;;;21.43;11.63;;;12.60;87.50;;;;;;5049287;28;20199;-81
2023/01/08 11:37:52;;;;;;;24.93;11.60;;;12.60;87.20;;;;;;5046681;28;20200;-83
2023/01/08 11:40:37;;;;;;;23.93;12.57;;;12.60;87.10;;;;;;5050568;28;20222;-81
2023/01/08 11:43:27;;;;;;;19.97;11.67;;;12.60;87.50;;;;;;5049622;28;20722;-81
2023/01/08 11:46:13;;;;;;;23.20;12.03;;;12.70;88.00;;;;;;5051828;28;20271;-80
2023/01/08 11:49:10;;;;;;;23.83;12.70;;;12.60;86.80;;;;;;5044426;28;20206;-81
2023/01/08 11:51:54;;;;;;;22.23;12.60;;;12.60;86.90;;;;;;5044239;28;20449;-81
2023/01/08 11:54:36;;;;;;;24.77;12.23;;;12.50;87.20;;;;;;5049183;28;20192;-81
2023/01/08 11:57:21;;;;;;;22.07;11.93;;;12.60;87.20;;;;;;5050347;28;20608;-81
2023/01/08 12:00:12;;;;;;;26.77;13.77;;;12.70;87.40;;;;;;5047298;28;20199;-80
2023/01/08 12:02:52;;;;;;;19.97;10.17;;;12.80;86.90;;;;;;5049412;28;20203;-81
2023/01/08 12:05:28;;;;;;;23.53;11.30;;;12.90;86.90;;;;;;5046094;28;20202;-80
2023/01/08 12:08:03;;;;;;;22.23;12.63;;;12.90;86.40;;;;;;5049126;28;20647;-82
2023/01/08 12:10:44;;;;;;;20.77;10.43;;;13.00;86.20;;;;;;5051941;28;20206;-78
2023/01/08 12:13:26;;;;;;;23.77;10.83;;;12.90;85.80;;;;;;5043648;28;20219;-79
2023/01/08 12:16:08;;;;;;;22.97;11.63;;;13.00;85.70;;;;;;5047601;28;20730;-81
2023/01/08 12:18:51;;;;;;;21.10;10.97;;;13.00;85.80;;;;;;5041939;28;20245;-80
2023/01/08 12:21:29;;;;;;;29.15;12.80;;;13.00;85.80;;;;;;5049381;28;20419;-80
2023/01/08 12:24:15;;;;;;;20.47;11.73;;;13.10;85.80;;;;;;5052283;28;20198;-80
2023/01/08 12:26:51;;;;;;;20.57;11.87;;;13.10;85.60;;;;;;5051023;28;20253;-81
2023/01/08 12:29:54;;;;;;;21.17;12.07;;;13.10;85.40;;;;;;5045957;28;20191;-79
2023/01/08 12:32:27;;;;;;;24.20;12.67;;;13.20;85.30;;;;;;5049223;28;20202;-78
2023/01/08 12:35:00;;;;;;;21.87;12.47;;;13.20;85.20;;;;;;5050661;28;20188;-81
2023/01/08 12:37:36;;;;;;;20.17;11.17;;;13.20;85.10;;;;;;5046276;28;20199;-80
2023/01/08 12:40:14;;;;;;;22.47;12.27;;;13.30;85.00;;;;;;5045897;28;20206;-80
2023/01/08 12:42:45;;;;;;;25.03;11.53;;;13.30;84.70;;;;;;5042971;28;20217;-80
2023/01/08 12:45:28;;;;;;;27.77;12.30;;;13.30;84.50;;;;;;5045001;28;20290;-82
2023/01/08 12:48:02;;;;;;;22.13;11.30;;;13.30;84.30;;;;;;5046263;28;20219;-80
2023/01/08 12:50:53;;;;;;;21.87;11.53;;;13.40;84.30;;;;;;5051037;28;20599;-82
2023/01/08 12:53:31;;;;;;;25.27;11.87;;;13.40;84.30;;;;;;5046661;28;20187;-82
2023/01/08 12:56:05;;;;;;;20.37;10.97;;;13.40;84.10;;;;;;5048493;28;20205;-79